Aviator — V7NU9 — position and weather

sailwx.info

Track history (hours):
 
Tides and Currents Weather Stations Pressure Air Temp Water Temp Dewpoint Dewpoint Depression Visibility Wind Speed Wind Dir Waves Ship Positions

Aviator

Last reported at 2014-Jul-05 03:16 UTC. Time now 2014-Jul-23 03:46 UTC.
Position S 35°02' E 019°47'.
Warning: this ship's position is 18 days out of date.

Length 140 m; draft 5.6 m.

Type: Cargo ship. MMSI: 538003023.

Date/timePositionNaut miles runAvg speedWind from/ knotsBaromVisibWave heightAir tempDewpointWater temp
2014-Jul-05 03:16S 35°02' E 019°47'4 3.6
2014-Jul-05 02:03S 35°03' E 019°52'  
2014-Jul-02 21:29S 32°21' E 029°06'3912.5
2014-Jul-02 18:21S 31°53' E 029°38'4614.4
2014-Jul-02 15:08S 31°19' E 030°15'3713.4
2014-Jul-02 12:24S 30°49' E 030°39'1313.0
2014-Jul-02 11:24S 30°37' E 030°45'1112.9
2014-Jul-02 10:33S 30°27' E 030°50'1211.8
2014-Jul-02 09:33S 30°16' E 030°56'1110.4
2014-Jul-02 08:29S 30°06' E 031°01'1010.6
2014-Jul-02 07:33S 29°57' E 031°06'5 5.4
2014-Jul-02 06:33S 29°52' E 031°03'2 2.4
2014-Jul-02 05:33S 29°52' E 031°00'0 0.0
2014-Jul-02 04:33S 29°52' E 031°00'0 0.0
2014-Jul-02 03:33S 29°52' E 031°00'0 0.0
2014-Jul-02 02:33S 29°52' E 031°00'0 0.0
2014-Jul-02 01:33S 29°52' E 031°00'0 0.0
2014-Jul-02 00:33S 29°52' E 031°00'0 0.0
2014-Jul-01 23:33S 29°52' E 031°00'0 0.0
2014-Jul-01 22:33S 29°52' E 031°00'0 0.0
2014-Jul-01 21:33S 29°52' E 031°00'0 0.0
2014-Jul-01 20:33S 29°52' E 031°00'0 0.0
2014-Jul-01 19:33S 29°52' E 031°00'0 0.0
2014-Jul-01 18:33S 29°52' E 031°00'0 0.0
2014-Jul-01 17:33S 29°52' E 031°00'0 0.0
2014-Jul-01 16:33S 29°52' E 031°00'0 0.0
2014-Jul-01 15:33S 29°52' E 031°00'0 0.0
2014-Jul-01 14:33S 29°52' E 031°00'0 0.0
2014-Jul-01 13:33S 29°52' E 031°00'0 0.0
2014-Jul-01 12:09S 29°52' E 031°00'0 0.0
2014-Jul-01 11:09S 29°52' E 031°00'0 0.0
2014-Jul-01 10:27S 29°52' E 031°00'0 0.0
2014-Jul-01 09:33S 29°52' E 031°00'0 0.0
2014-Jul-01 08:33S 29°52' E 031°00'0 0.0
2014-Jul-01 07:33S 29°52' E 031°00'0 0.0
2014-Jul-01 06:33S 29°52' E 031°00'0 0.0
2014-Jul-01 05:33S 29°52' E 031°00'0 0.0
2014-Jul-01 04:33S 29°52' E 031°00'0 0.0
2014-Jul-01 03:33S 29°52' E 031°00'0 0.0
2014-Jul-01 02:33S 29°52' E 031°00'0 0.0
2014-Jul-01 01:33S 29°52' E 031°00'0 0.0
2014-Jul-01 00:33S 29°52' E 031°00'0 0.0
2014-Jun-30 23:33S 29°52' E 031°00'0 0.0
2014-Jun-30 22:33S 29°52' E 031°00'0 0.0
2014-Jun-30 21:33S 29°52' E 031°00'0 0.0
2014-Jun-30 20:33S 29°52' E 031°00'0 0.0
2014-Jun-30 19:33S 29°52' E 031°00'0 0.0
2014-Jun-30 18:33S 29°52' E 031°00'0 0.0
2014-Jun-30 17:21S 29°52' E 031°00'0 0.0
2014-Jun-30 16:33S 29°52' E 031°00'0 0.0
2014-Jun-30 15:33S 29°52' E 031°00'0 0.0
2014-Jun-30 14:33S 29°52' E 031°00'0 0.0
2014-Jun-30 13:33S 29°52' E 031°00'0 0.0
2014-Jun-30 12:33S 29°52' E 031°00'0 0.0
2014-Jun-30 11:33S 29°52' E 031°00'0 0.0
2014-Jun-30 10:27S 29°52' E 031°00'0 0.0
2014-Jun-30 09:33S 29°52' E 031°00'3 2.6
2014-Jun-30 08:33S 29°52' E 031°03'2 2.4
2014-Jun-30 07:33S 29°50' E 031°04'1 0.6
2014-Jun-30 06:33S 29°49' E 031°05'8 7.8
2014-Jun-30 05:33S 29°48' E 031°14'3 3.4
2014-Jun-30 04:33S 29°46' E 031°17'0 0.3
2014-Jun-30 03:33S 29°46' E 031°17'3 2.9
2014-Jun-30 02:33S 29°47' E 031°20'1111.3
2014-Jun-30 01:33S 29°44' E 031°33'1211.5
2014-Jun-30 00:33S 29°41' E 031°45'1212.0
2014-Jun-29 23:33S 29°38' E 031°59'1212.3
2014-Jun-29 22:33S 29°35' E 032°13'1212.1
2014-Jun-29 21:33S 29°33' E 032°26'  
Track history (hours):
 
Tides and Currents Weather Stations Pressure Air Temp Water Temp Dewpoint Dewpoint Depression Visibility Wind Speed Wind Dir Waves Ship Positions

Aviator

Last reported at 2014-Jul-05 03:16 UTC. Time now 2014-Jul-23 03:46 UTC.
Position S 35°02' E 019°47'.
Warning: this ship's position is 18 days out of date.

Length 140 m; draft 5.6 m.

Type: Cargo ship. MMSI: 538003023.

Date/timePositionNaut miles runAvg speedWind from/ knotsBaromVisibWave heightAir tempDewpointWater temp
2014-Jul-05 03:16S 35°02' E 019°47'4 3.6
2014-Jul-05 02:03S 35°03' E 019°52'  
2014-Jul-02 21:29S 32°21' E 029°06'3912.5
2014-Jul-02 18:21S 31°53' E 029°38'4614.4
2014-Jul-02 15:08S 31°19' E 030°15'3713.4
2014-Jul-02 12:24S 30°49' E 030°39'1313.0
2014-Jul-02 11:24S 30°37' E 030°45'1112.9
2014-Jul-02 10:33S 30°27' E 030°50'1211.8
2014-Jul-02 09:33S 30°16' E 030°56'1110.4
2014-Jul-02 08:29S 30°06' E 031°01'1010.6
2014-Jul-02 07:33S 29°57' E 031°06'5 5.4
2014-Jul-02 06:33S 29°52' E 031°03'2 2.4
2014-Jul-02 05:33S 29°52' E 031°00'0 0.0
2014-Jul-02 04:33S 29°52' E 031°00'0 0.0
2014-Jul-02 03:33S 29°52' E 031°00'0 0.0
2014-Jul-02 02:33S 29°52' E 031°00'0 0.0
2014-Jul-02 01:33S 29°52' E 031°00'0 0.0
2014-Jul-02 00:33S 29°52' E 031°00'0 0.0
2014-Jul-01 23:33S 29°52' E 031°00'0 0.0
2014-Jul-01 22:33S 29°52' E 031°00'0 0.0
2014-Jul-01 21:33S 29°52' E 031°00'0 0.0
2014-Jul-01 20:33S 29°52' E 031°00'0 0.0
2014-Jul-01 19:33S 29°52' E 031°00'0 0.0
2014-Jul-01 18:33S 29°52' E 031°00'0 0.0
2014-Jul-01 17:33S 29°52' E 031°00'0 0.0
2014-Jul-01 16:33S 29°52' E 031°00'0 0.0
2014-Jul-01 15:33S 29°52' E 031°00'0 0.0
2014-Jul-01 14:33S 29°52' E 031°00'0 0.0
2014-Jul-01 13:33S 29°52' E 031°00'0 0.0
2014-Jul-01 12:09S 29°52' E 031°00'0 0.0
2014-Jul-01 11:09S 29°52' E 031°00'0 0.0
2014-Jul-01 10:27S 29°52' E 031°00'0 0.0
2014-Jul-01 09:33S 29°52' E 031°00'0 0.0
2014-Jul-01 08:33S 29°52' E 031°00'0 0.0
2014-Jul-01 07:33S 29°52' E 031°00'0 0.0
2014-Jul-01 06:33S 29°52' E 031°00'0 0.0
2014-Jul-01 05:33S 29°52' E 031°00'0 0.0
2014-Jul-01 04:33S 29°52' E 031°00'0 0.0
2014-Jul-01 03:33S 29°52' E 031°00'0 0.0
2014-Jul-01 02:33S 29°52' E 031°00'0 0.0
2014-Jul-01 01:33S 29°52' E 031°00'0 0.0
2014-Jul-01 00:33S 29°52' E 031°00'0 0.0
2014-Jun-30 23:33S 29°52' E 031°00'0 0.0
2014-Jun-30 22:33S 29°52' E 031°00'0 0.0
2014-Jun-30 21:33S 29°52' E 031°00'0 0.0
2014-Jun-30 20:33S 29°52' E 031°00'0 0.0
2014-Jun-30 19:33S 29°52' E 031°00'0 0.0
2014-Jun-30 18:33S 29°52' E 031°00'0 0.0
2014-Jun-30 17:21S 29°52' E 031°00'0 0.0
2014-Jun-30 16:33S 29°52' E 031°00'0 0.0
2014-Jun-30 15:33S 29°52' E 031°00'0 0.0
2014-Jun-30 14:33S 29°52' E 031°00'0 0.0
2014-Jun-30 13:33S 29°52' E 031°00'0 0.0
2014-Jun-30 12:33S 29°52' E 031°00'0 0.0
2014-Jun-30 11:33S 29°52' E 031°00'0 0.0
2014-Jun-30 10:27S 29°52' E 031°00'0 0.0
2014-Jun-30 09:33S 29°52' E 031°00'3 2.6
2014-Jun-30 08:33S 29°52' E 031°03'2 2.4
2014-Jun-30 07:33S 29°50' E 031°04'1 0.6
2014-Jun-30 06:33S 29°49' E 031°05'8 7.8
2014-Jun-30 05:33S 29°48' E 031°14'3 3.4
2014-Jun-30 04:33S 29°46' E 031°17'0 0.3
2014-Jun-30 03:33S 29°46' E 031°17'3 2.9
2014-Jun-30 02:33S 29°47' E 031°20'1111.3
2014-Jun-30 01:33S 29°44' E 031°33'1211.5
2014-Jun-30 00:33S 29°41' E 031°45'1212.0
2014-Jun-29 23:33S 29°38' E 031°59'1212.3
2014-Jun-29 22:33S 29°35' E 032°13'1212.1
2014-Jun-29 21:33S 29°33' E 032°26'  

Dump ship's entire track history